sensor_id;sensor_type;location;lat;lon;timestamp;P1;durP1;ratioP1;P2;durP2;ratioP2
17790;SDS011;9019;48.132;-1.210;2023-05-14T00:02:15;31.07;;;24.50;;
17790;SDS011;9019;48.132;-1.210;2023-05-14T00:04:44;29.63;;;22.57;;
17790;SDS011;9019;48.132;-1.210;2023-05-14T00:07:12;32.40;;;23.30;;
17790;SDS011;9019;48.132;-1.210;2023-05-14T00:09:39;30.83;;;23.43;;
17790;SDS011;9019;48.132;-1.210;2023-05-14T00:12:07;33.17;;;23.83;;
17790;SDS011;9019;48.132;-1.210;2023-05-14T00:14:34;32.50;;;23.73;;
17790;SDS011;9019;48.132;-1.210;2023-05-14T00:17:01;33.20;;;24.33;;
17790;SDS011;9019;48.132;-1.210;2023-05-14T00:19:31;32.93;;;24.07;;
17790;SDS011;9019;48.132;-1.210;2023-05-14T00:21:59;32.13;;;23.73;;
17790;SDS011;9019;48.132;-1.210;2023-05-14T00:24:26;33.80;;;24.87;;
17790;SDS011;9019;48.132;-1.210;2023-05-14T00:26:53;34.73;;;25.47;;
17790;SDS011;9019;48.132;-1.210;2023-05-14T00:29:21;35.90;;;26.20;;
17790;SDS011;9019;48.132;-1.210;2023-05-14T00:31:48;37.93;;;26.53;;
17790;SDS011;9019;48.132;-1.210;2023-05-14T00:34:15;33.30;;;26.00;;
17790;SDS011;9019;48.132;-1.210;2023-05-14T00:36:42;37.73;;;26.63;;
17790;SDS011;9019;48.132;-1.210;2023-05-14T00:39:11;40.20;;;26.70;;
17790;SDS011;9019;48.132;-1.210;2023-05-14T00:41:38;34.77;;;25.53;;
17790;SDS011;9019;48.132;-1.210;2023-05-14T00:44:06;39.77;;;27.23;;
17790;SDS011;9019;48.132;-1.210;2023-05-14T00:46:33;34.73;;;26.53;;
17790;SDS011;9019;48.132;-1.210;2023-05-14T00:49:00;37.47;;;26.73;;
17790;SDS011;9019;48.132;-1.210;2023-05-14T00:51:27;39.30;;;26.90;;
17790;SDS011;9019;48.132;-1.210;2023-05-14T00:53:55;39.90;;;27.67;;
17790;SDS011;9019;48.132;-1.210;2023-05-14T00:56:23;38.93;;;27.37;;
17790;SDS011;9019;48.132;-1.210;2023-05-14T00:58:51;40.13;;;27.20;;
17790;SDS011;9019;48.132;-1.210;2023-05-14T01:01:18;37.67;;;27.77;;
17790;SDS011;9019;48.132;-1.210;2023-05-14T01:03:46;38.80;;;26.73;;
17790;SDS011;9019;48.132;-1.210;2023-05-14T01:06:14;38.63;;;27.03;;
17790;SDS011;9019;48.132;-1.210;2023-05-14T01:08:45;40.73;;;27.70;;
17790;SDS011;9019;48.132;-1.210;2023-05-14T01:11:16;38.00;;;27.37;;
17790;SDS011;9019;48.132;-1.210;2023-05-14T01:13:48;42.00;;;27.80;;
17790;SDS011;9019;48.132;-1.210;2023-05-14T01:16:18;40.47;;;28.57;;
17790;SDS011;9019;48.132;-1.210;2023-05-14T01:18:45;43.30;;;28.00;;
17790;SDS011;9019;48.132;-1.210;2023-05-14T01:21:23;44.10;;;28.80;;
17790;SDS011;9019;48.132;-1.210;2023-05-14T01:23:50;40.73;;;28.10;;
17790;SDS011;9019;48.132;-1.210;2023-05-14T01:26:18;43.27;;;29.30;;
17790;SDS011;9019;48.132;-1.210;2023-05-14T01:28:45;43.77;;;28.70;;
17790;SDS011;9019;48.132;-1.210;2023-05-14T01:31:15;45.77;;;29.33;;
17790;SDS011;9019;48.132;-1.210;2023-05-14T01:33:44;45.60;;;30.07;;
17790;SDS011;9019;48.132;-1.210;2023-05-14T01:36:13;42.47;;;29.53;;
17790;SDS011;9019;48.132;-1.210;2023-05-14T01:38:42;42.40;;;29.70;;
17790;SDS011;9019;48.132;-1.210;2023-05-14T01:41:11;46.60;;;30.47;;
17790;SDS011;9019;48.132;-1.210;2023-05-14T01:43:39;45.77;;;30.37;;
17790;SDS011;9019;48.132;-1.210;2023-05-14T01:46:06;43.97;;;29.93;;
17790;SDS011;9019;48.132;-1.210;2023-05-14T01:48:34;43.83;;;28.93;;
17790;SDS011;9019;48.132;-1.210;2023-05-14T01:51:01;40.50;;;29.03;;
17790;SDS011;9019;48.132;-1.210;2023-05-14T01:53:29;45.80;;;30.27;;
17790;SDS011;9019;48.132;-1.210;2023-05-14T01:56:00;44.33;;;30.77;;
17790;SDS011;9019;48.132;-1.210;2023-05-14T01:58:27;44.97;;;30.90;;
17790;SDS011;9019;48.132;-1.210;2023-05-14T02:00:54;49.03;;;30.30;;
17790;SDS011;9019;48.132;-1.210;2023-05-14T02:03:21;48.83;;;30.50;;
17790;SDS011;9019;48.132;-1.210;2023-05-14T02:05:48;44.33;;;28.43;;
17790;SDS011;9019;48.132;-1.210;2023-05-14T02:08:16;45.67;;;29.40;;
17790;SDS011;9019;48.132;-1.210;2023-05-14T02:10:43;45.23;;;29.73;;
17790;SDS011;9019;48.132;-1.210;2023-05-14T02:13:12;44.57;;;28.60;;
17790;SDS011;9019;48.132;-1.210;2023-05-14T02:15:39;44.03;;;29.17;;
17790;SDS011;9019;48.132;-1.210;2023-05-14T02:18:06;42.93;;;29.93;;
17790;SDS011;9019;48.132;-1.210;2023-05-14T02:20:33;37.93;;;27.67;;
17790;SDS011;9019;48.132;-1.210;2023-05-14T02:23:00;41.47;;;28.57;;
17790;SDS011;9019;48.132;-1.210;2023-05-14T02:25:28;43.23;;;29.67;;
17790;SDS011;9019;48.132;-1.210;2023-05-14T02:27:55;44.33;;;29.10;;
17790;SDS011;9019;48.132;-1.210;2023-05-14T02:30:23;41.53;;;28.30;;
17790;SDS011;9019;48.132;-1.210;2023-05-14T02:32:50;41.20;;;28.20;;
17790;SDS011;9019;48.132;-1.210;2023-05-14T02:35:18;43.93;;;28.27;;
17790;SDS011;9019;48.132;-1.210;2023-05-14T02:37:45;42.70;;;29.27;;
17790;SDS011;9019;48.132;-1.210;2023-05-14T02:40:12;47.67;;;30.53;;
17790;SDS011;9019;48.132;-1.210;2023-05-14T02:42:39;47.67;;;30.97;;
17790;SDS011;9019;48.132;-1.210;2023-05-14T02:45:07;48.47;;;31.53;;
17790;SDS011;9019;48.132;-1.210;2023-05-14T02:47:35;53.43;;;32.73;;
17790;SDS011;9019;48.132;-1.210;2023-05-14T02:50:03;56.20;;;34.43;;
17790;SDS011;9019;48.132;-1.210;2023-05-14T02:52:30;57.90;;;34.07;;
17790;SDS011;9019;48.132;-1.210;2023-05-14T02:54:57;59.03;;;34.43;;
17790;SDS011;9019;48.132;-1.210;2023-05-14T02:57:25;60.77;;;36.23;;
17790;SDS011;9019;48.132;-1.210;2023-05-14T02:59:52;60.63;;;37.37;;
17790;SDS011;9019;48.132;-1.210;2023-05-14T03:02:19;61.43;;;36.60;;
17790;SDS011;9019;48.132;-1.210;2023-05-14T03:04:47;62.57;;;36.90;;
17790;SDS011;9019;48.132;-1.210;2023-05-14T03:07:15;58.00;;;36.30;;
17790;SDS011;9019;48.132;-1.210;2023-05-14T03:09:42;55.53;;;34.93;;
17790;SDS011;9019;48.132;-1.210;2023-05-14T03:12:09;56.67;;;35.37;;
17790;SDS011;9019;48.132;-1.210;2023-05-14T03:14:36;61.63;;;35.77;;
17790;SDS011;9019;48.132;-1.210;2023-05-14T03:17:04;59.43;;;35.63;;
17790;SDS011;9019;48.132;-1.210;2023-05-14T03:19:31;60.13;;;37.50;;
17790;SDS011;9019;48.132;-1.210;2023-05-14T03:21:59;59.77;;;36.67;;
17790;SDS011;9019;48.132;-1.210;2023-05-14T03:24:27;54.83;;;36.00;;
17790;SDS011;9019;48.132;-1.210;2023-05-14T03:26:54;57.87;;;35.63;;
17790;SDS011;9019;48.132;-1.210;2023-05-14T03:29:21;58.47;;;35.77;;
17790;SDS011;9019;48.132;-1.210;2023-05-14T03:31:48;61.53;;;35.93;;
17790;SDS011;9019;48.132;-1.210;2023-05-14T03:34:16;61.33;;;36.27;;
17790;SDS011;9019;48.132;-1.210;2023-05-14T03:36:43;63.93;;;36.80;;
17790;SDS011;9019;48.132;-1.210;2023-05-14T03:39:11;64.00;;;36.97;;
17790;SDS011;9019;48.132;-1.210;2023-05-14T03:41:39;70.97;;;38.40;;
17790;SDS011;9019;48.132;-1.210;2023-05-14T03:44:06;60.83;;;37.10;;
17790;SDS011;9019;48.132;-1.210;2023-05-14T03:46:37;68.10;;;37.37;;
17790;SDS011;9019;48.132;-1.210;2023-05-14T03:49:04;70.57;;;38.30;;
17790;SDS011;9019;48.132;-1.210;2023-05-14T03:51:32;63.90;;;36.40;;
17790;SDS011;9019;48.132;-1.210;2023-05-14T03:53:59;68.73;;;39.17;;
17790;SDS011;9019;48.132;-1.210;2023-05-14T03:56:27;71.10;;;38.57;;
17790;SDS011;9019;48.132;-1.210;2023-05-14T03:58:55;65.47;;;38.10;;
17790;SDS011;9019;48.132;-1.210;2023-05-14T04:01:22;73.37;;;39.07;;
17790;SDS011;9019;48.132;-1.210;2023-05-14T04:03:49;72.33;;;38.37;;
17790;SDS011;9019;48.132;-1.210;2023-05-14T04:06:16;71.83;;;39.07;;
17790;SDS011;9019;48.132;-1.210;2023-05-14T04:08:43;72.50;;;39.20;;
17790;SDS011;9019;48.132;-1.210;2023-05-14T04:11:10;72.47;;;38.83;;
17790;SDS011;9019;48.132;-1.210;2023-05-14T04:13:39;74.20;;;39.20;;
17790;SDS011;9019;48.132;-1.210;2023-05-14T04:16:06;69.77;;;37.50;;
17790;SDS011;9019;48.132;-1.210;2023-05-14T04:18:33;70.13;;;38.43;;
17790;SDS011;9019;48.132;-1.210;2023-05-14T04:21:01;64.63;;;36.83;;
17790;SDS011;9019;48.132;-1.210;2023-05-14T04:23:28;64.17;;;36.37;;
17790;SDS011;9019;48.132;-1.210;2023-05-14T04:25:56;71.33;;;37.40;;
17790;SDS011;9019;48.132;-1.210;2023-05-14T04:28:23;69.30;;;37.43;;
17790;SDS011;9019;48.132;-1.210;2023-05-14T04:30:52;66.60;;;35.70;;
17790;SDS011;9019;48.132;-1.210;2023-05-14T04:33:19;70.17;;;36.27;;
17790;SDS011;9019;48.132;-1.210;2023-05-14T04:35:46;64.07;;;36.90;;
17790;SDS011;9019;48.132;-1.210;2023-05-14T04:38:13;68.93;;;36.77;;
17790;SDS011;9019;48.132;-1.210;2023-05-14T04:40:41;67.90;;;36.73;;
17790;SDS011;9019;48.132;-1.210;2023-05-14T04:43:08;61.10;;;35.73;;
17790;SDS011;9019;48.132;-1.210;2023-05-14T04:45:35;68.40;;;38.00;;
17790;SDS011;9019;48.132;-1.210;2023-05-14T04:48:04;70.93;;;37.57;;
17790;SDS011;9019;48.132;-1.210;2023-05-14T04:50:32;66.13;;;35.87;;
17790;SDS011;9019;48.132;-1.210;2023-05-14T04:52:59;61.80;;;35.40;;
17790;SDS011;9019;48.132;-1.210;2023-05-14T04:55:27;63.60;;;36.60;;
17790;SDS011;9019;48.132;-1.210;2023-05-14T04:57:54;66.67;;;36.10;;
17790;SDS011;9019;48.132;-1.210;2023-05-14T05:00:21;64.90;;;36.20;;
17790;SDS011;9019;48.132;-1.210;2023-05-14T05:02:49;68.30;;;36.10;;
17790;SDS011;9019;48.132;-1.210;2023-05-14T05:05:17;63.00;;;35.20;;
17790;SDS011;9019;48.132;-1.210;2023-05-14T05:07:44;66.30;;;35.37;;
17790;SDS011;9019;48.132;-1.210;2023-05-14T05:10:12;58.40;;;34.30;;
17790;SDS011;9019;48.132;-1.210;2023-05-14T05:12:40;59.40;;;35.50;;
17790;SDS011;9019;48.132;-1.210;2023-05-14T05:15:07;60.57;;;34.43;;
17790;SDS011;9019;48.132;-1.210;2023-05-14T05:17:35;54.97;;;34.23;;
17790;SDS011;9019;48.132;-1.210;2023-05-14T05:20:02;61.17;;;34.97;;
17790;SDS011;9019;48.132;-1.210;2023-05-14T05:22:33;56.20;;;33.10;;
17790;SDS011;9019;48.132;-1.210;2023-05-14T05:25:01;57.80;;;33.67;;
17790;SDS011;9019;48.132;-1.210;2023-05-14T05:27:30;54.90;;;32.83;;
17790;SDS011;9019;48.132;-1.210;2023-05-14T05:29:57;54.93;;;32.87;;
17790;SDS011;9019;48.132;-1.210;2023-05-14T05:32:24;57.17;;;33.10;;
17790;SDS011;9019;48.132;-1.210;2023-05-14T05:34:51;56.03;;;31.53;;
17790;SDS011;9019;48.132;-1.210;2023-05-14T05:37:18;58.63;;;33.70;;
17790;SDS011;9019;48.132;-1.210;2023-05-14T05:39:47;57.50;;;33.37;;
17790;SDS011;9019;48.132;-1.210;2023-05-14T05:42:15;58.57;;;33.63;;
17790;SDS011;9019;48.132;-1.210;2023-05-14T05:44:42;62.47;;;35.40;;
17790;SDS011;9019;48.132;-1.210;2023-05-14T05:47:09;58.03;;;33.87;;
17790;SDS011;9019;48.132;-1.210;2023-05-14T05:49:36;53.03;;;32.90;;
17790;SDS011;9019;48.132;-1.210;2023-05-14T05:52:04;54.20;;;33.43;;
17790;SDS011;9019;48.132;-1.210;2023-05-14T05:54:31;54.70;;;32.13;;
17790;SDS011;9019;48.132;-1.210;2023-05-14T05:56:59;56.27;;;33.43;;
17790;SDS011;9019;48.132;-1.210;2023-05-14T05:59:27;52.87;;;31.47;;
17790;SDS011;9019;48.132;-1.210;2023-05-14T06:01:54;50.73;;;31.53;;
17790;SDS011;9019;48.132;-1.210;2023-05-14T06:04:21;55.00;;;32.97;;
17790;SDS011;9019;48.132;-1.210;2023-05-14T06:06:48;53.83;;;31.30;;
17790;SDS011;9019;48.132;-1.210;2023-05-14T06:09:16;50.70;;;31.00;;
17790;SDS011;9019;48.132;-1.210;2023-05-14T06:11:43;51.23;;;31.23;;
17790;SDS011;9019;48.132;-1.210;2023-05-14T06:14:11;55.63;;;31.87;;
17790;SDS011;9019;48.132;-1.210;2023-05-14T06:16:39;51.17;;;31.70;;
17790;SDS011;9019;48.132;-1.210;2023-05-14T06:19:06;53.50;;;31.40;;
17790;SDS011;9019;48.132;-1.210;2023-05-14T06:21:34;53.10;;;31.07;;
17790;SDS011;9019;48.132;-1.210;2023-05-14T06:24:01;49.43;;;31.37;;
17790;SDS011;9019;48.132;-1.210;2023-05-14T06:26:28;53.70;;;31.23;;
17790;SDS011;9019;48.132;-1.210;2023-05-14T06:28:55;49.80;;;31.70;;
17790;SDS011;9019;48.132;-1.210;2023-05-14T06:31:24;52.47;;;31.27;;
17790;SDS011;9019;48.132;-1.210;2023-05-14T06:33:51;53.70;;;32.40;;
17790;SDS011;9019;48.132;-1.210;2023-05-14T06:36:19;50.70;;;31.37;;
17790;SDS011;9019;48.132;-1.210;2023-05-14T06:38:46;49.87;;;31.67;;
17790;SDS011;9019;48.132;-1.210;2023-05-14T06:41:13;56.17;;;31.70;;
17790;SDS011;9019;48.132;-1.210;2023-05-14T06:43:40;53.27;;;32.57;;
17790;SDS011;9019;48.132;-1.210;2023-05-14T06:46:07;54.37;;;32.20;;
17790;SDS011;9019;48.132;-1.210;2023-05-14T06:48:36;50.37;;;32.00;;
17790;SDS011;9019;48.132;-1.210;2023-05-14T06:51:03;50.97;;;31.40;;
17790;SDS011;9019;48.132;-1.210;2023-05-14T06:53:30;46.20;;;30.60;;
17790;SDS011;9019;48.132;-1.210;2023-05-14T06:55:57;47.33;;;30.93;;
17790;SDS011;9019;48.132;-1.210;2023-05-14T06:58:25;48.73;;;30.00;;
17790;SDS011;9019;48.132;-1.210;2023-05-14T07:00:52;43.07;;;29.50;;
17790;SDS011;9019;48.132;-1.210;2023-05-14T07:03:19;43.03;;;29.27;;
17790;SDS011;9019;48.132;-1.210;2023-05-14T07:05:48;43.43;;;29.37;;
17790;SDS011;9019;48.132;-1.210;2023-05-14T07:08:15;43.13;;;29.37;;
17790;SDS011;9019;48.132;-1.210;2023-05-14T07:10:43;41.43;;;28.63;;
17790;SDS011;9019;48.132;-1.210;2023-05-14T07:13:10;43.10;;;28.60;;
17790;SDS011;9019;48.132;-1.210;2023-05-14T07:15:37;40.00;;;28.57;;
17790;SDS011;9019;48.132;-1.210;2023-05-14T07:18:04;37.87;;;27.47;;
17790;SDS011;9019;48.132;-1.210;2023-05-14T07:20:32;42.73;;;28.03;;
17790;SDS011;9019;48.132;-1.210;2023-05-14T07:23:00;38.67;;;27.33;;
17790;SDS011;9019;48.132;-1.210;2023-05-14T07:25:27;39.13;;;27.33;;
17790;SDS011;9019;48.132;-1.210;2023-05-14T07:27:55;37.73;;;27.23;;
17790;SDS011;9019;48.132;-1.210;2023-05-14T07:30:22;36.00;;;26.60;;
17790;SDS011;9019;48.132;-1.210;2023-05-14T07:32:49;35.97;;;26.53;;
17790;SDS011;9019;48.132;-1.210;2023-05-14T07:35:16;37.10;;;26.77;;
17790;SDS011;9019;48.132;-1.210;2023-05-14T07:37:44;37.23;;;26.90;;
17790;SDS011;9019;48.132;-1.210;2023-05-14T07:40:13;36.73;;;26.13;;
17790;SDS011;9019;48.132;-1.210;2023-05-14T07:42:40;32.80;;;25.53;;
17790;SDS011;9019;48.132;-1.210;2023-05-14T07:45:08;34.50;;;25.60;;
17790;SDS011;9019;48.132;-1.210;2023-05-14T07:47:35;34.70;;;25.03;;
17790;SDS011;9019;48.132;-1.210;2023-05-14T07:50:02;33.47;;;24.47;;
17790;SDS011;9019;48.132;-1.210;2023-05-14T07:52:29;31.27;;;24.57;;
17790;SDS011;9019;48.132;-1.210;2023-05-14T07:54:57;33.37;;;24.67;;
17790;SDS011;9019;48.132;-1.210;2023-05-14T07:57:26;31.57;;;23.53;;
17790;SDS011;9019;48.132;-1.210;2023-05-14T07:59:54;35.40;;;25.27;;
17790;SDS011;9019;48.132;-1.210;2023-05-14T08:02:21;34.07;;;24.73;;
17790;SDS011;9019;48.132;-1.210;2023-05-14T08:04:48;31.57;;;23.23;;
17790;SDS011;9019;48.132;-1.210;2023-05-14T08:07:15;32.10;;;24.03;;
17790;SDS011;9019;48.132;-1.210;2023-05-14T08:09:42;31.53;;;24.27;;
17790;SDS011;9019;48.132;-1.210;2023-05-14T08:12:09;34.37;;;24.90;;
17790;SDS011;9019;48.132;-1.210;2023-05-14T08:14:38;30.13;;;23.07;;
17790;SDS011;9019;48.132;-1.210;2023-05-14T08:17:05;36.13;;;23.67;;
17790;SDS011;9019;48.132;-1.210;2023-05-14T08:19:33;34.93;;;24.70;;
17790;SDS011;9019;48.132;-1.210;2023-05-14T08:22:00;32.13;;;24.07;;
17790;SDS011;9019;48.132;-1.210;2023-05-14T08:24:27;31.10;;;23.23;;
17790;SDS011;9019;48.132;-1.210;2023-05-14T08:26:54;29.43;;;22.77;;
17790;SDS011;9019;48.132;-1.210;2023-05-14T08:29:22;29.30;;;22.38;;
17790;SDS011;9019;48.132;-1.210;2023-05-14T08:31:51;30.10;;;22.30;;
17790;SDS011;9019;48.132;-1.210;2023-05-14T08:34:18;31.25;;;22.50;;
17790;SDS011;9019;48.132;-1.210;2023-05-14T08:36:46;28.95;;;21.88;;
17790;SDS011;9019;48.132;-1.210;2023-05-14T08:39:13;30.45;;;22.90;;
17790;SDS011;9019;48.132;-1.210;2023-05-14T08:41:40;26.75;;;20.85;;
17790;SDS011;9019;48.132;-1.210;2023-05-14T08:44:09;27.23;;;21.60;;
17790;SDS011;9019;48.132;-1.210;2023-05-14T08:46:38;27.25;;;22.35;;
17790;SDS011;9019;48.132;-1.210;2023-05-14T08:49:09;26.42;;;21.92;;
17790;SDS011;9019;48.132;-1.210;2023-05-14T08:51:42;25.95;;;20.90;;
17790;SDS011;9019;48.132;-1.210;2023-05-14T08:54:11;27.67;;;21.38;;
17790;SDS011;9019;48.132;-1.210;2023-05-14T08:56:40;25.42;;;20.17;;
17790;SDS011;9019;48.132;-1.210;2023-05-14T08:59:09;23.70;;;20.40;;
17790;SDS011;9019;48.132;-1.210;2023-05-14T09:01:36;22.25;;;19.85;;
17790;SDS011;9019;48.132;-1.210;2023-05-14T09:04:05;24.33;;;20.95;;
17790;SDS011;9019;48.132;-1.210;2023-05-14T09:06:34;23.80;;;20.27;;
17790;SDS011;9019;48.132;-1.210;2023-05-14T09:09:02;23.95;;;20.40;;
17790;SDS011;9019;48.132;-1.210;2023-05-14T09:11:30;27.48;;;21.48;;
17790;SDS011;9019;48.132;-1.210;2023-05-14T09:13:57;23.48;;;19.67;;
17790;SDS011;9019;48.132;-1.210;2023-05-14T09:16:24;25.65;;;20.25;;
17790;SDS011;9019;48.132;-1.210;2023-05-14T09:18:51;21.48;;;19.08;;
17790;SDS011;9019;48.132;-1.210;2023-05-14T09:21:19;24.60;;;18.27;;
17790;SDS011;9019;48.132;-1.210;2023-05-14T09:23:48;24.35;;;18.70;;
17790;SDS011;9019;48.132;-1.210;2023-05-14T09:26:21;21.85;;;18.92;;
17790;SDS011;9019;48.132;-1.210;2023-05-14T09:28:52;21.23;;;17.98;;
17790;SDS011;9019;48.132;-1.210;2023-05-14T09:31:19;20.92;;;18.58;;
17790;SDS011;9019;48.132;-1.210;2023-05-14T09:33:48;20.77;;;18.35;;
17790;SDS011;9019;48.132;-1.210;2023-05-14T09:36:16;20.90;;;16.67;;
17790;SDS011;9019;48.132;-1.210;2023-05-14T09:38:43;23.77;;;18.25;;
17790;SDS011;9019;48.132;-1.210;2023-05-14T09:41:12;19.55;;;17.17;;
17790;SDS011;9019;48.132;-1.210;2023-05-14T09:43:40;23.33;;;17.63;;
17790;SDS011;9019;48.132;-1.210;2023-05-14T09:46:07;20.02;;;17.35;;
17790;SDS011;9019;48.132;-1.210;2023-05-14T09:48:34;19.48;;;17.38;;
17790;SDS011;9019;48.132;-1.210;2023-05-14T09:51:02;19.85;;;17.73;;
17790;SDS011;9019;48.132;-1.210;2023-05-14T09:53:30;18.98;;;16.98;;
17790;SDS011;9019;48.132;-1.210;2023-05-14T09:55:59;19.35;;;15.88;;
17790;SDS011;9019;48.132;-1.210;2023-05-14T09:58:28;18.85;;;16.85;;
17790;SDS011;9019;48.132;-1.210;2023-05-14T10:00:56;18.67;;;16.65;;
17790;SDS011;9019;48.132;-1.210;2023-05-14T10:03:24;18.58;;;16.58;;
17790;SDS011;9019;48.132;-1.210;2023-05-14T10:05:52;23.10;;;17.77;;
17790;SDS011;9019;48.132;-1.210;2023-05-14T10:08:21;20.52;;;17.65;;
17790;SDS011;9019;48.132;-1.210;2023-05-14T10:10:50;20.67;;;18.17;;
17790;SDS011;9019;48.132;-1.210;2023-05-14T10:13:21;20.02;;;17.48;;
17790;SDS011;9019;48.132;-1.210;2023-05-14T10:15:53;22.15;;;19.27;;
17790;SDS011;9019;48.132;-1.210;2023-05-14T10:18:22;21.98;;;19.13;;
17790;SDS011;9019;48.132;-1.210;2023-05-14T10:20:52;21.48;;;19.23;;
17790;SDS011;9019;48.132;-1.210;2023-05-14T10:23:19;21.63;;;19.10;;
17790;SDS011;9019;48.132;-1.210;2023-05-14T10:25:46;21.52;;;19.27;;
17790;SDS011;9019;48.132;-1.210;2023-05-14T10:28:14;20.75;;;18.55;;
17790;SDS011;9019;48.132;-1.210;2023-05-14T10:30:42;19.08;;;17.15;;
17790;SDS011;9019;48.132;-1.210;2023-05-14T10:33:12;20.80;;;18.63;;
17790;SDS011;9019;48.132;-1.210;2023-05-14T10:35:50;20.17;;;18.08;;
17790;SDS011;9019;48.132;-1.210;2023-05-14T10:38:20;19.40;;;17.33;;
17790;SDS011;9019;48.132;-1.210;2023-05-14T10:40:48;18.23;;;16.35;;
17790;SDS011;9019;48.132;-1.210;2023-05-14T10:43:16;19.17;;;17.17;;
17790;SDS011;9019;48.132;-1.210;2023-05-14T10:45:43;21.73;;;18.20;;
17790;SDS011;9019;48.132;-1.210;2023-05-14T10:48:12;20.38;;;18.27;;
17790;SDS011;9019;48.132;-1.210;2023-05-14T10:50:40;18.73;;;16.65;;
17790;SDS011;9019;48.132;-1.210;2023-05-14T10:53:09;19.33;;;16.77;;
17790;SDS011;9019;48.132;-1.210;2023-05-14T10:55:38;17.67;;;15.88;;
17790;SDS011;9019;48.132;-1.210;2023-05-14T10:58:06;17.40;;;15.60;;
17790;SDS011;9019;48.132;-1.210;2023-05-14T11:00:33;18.95;;;17.02;;
17790;SDS011;9019;48.132;-1.210;2023-05-14T11:03:02;18.52;;;16.63;;
17790;SDS011;9019;48.132;-1.210;2023-05-14T11:05:31;19.25;;;17.35;;
17790;SDS011;9019;48.132;-1.210;2023-05-14T11:08:01;19.17;;;17.13;;
17790;SDS011;9019;48.132;-1.210;2023-05-14T11:10:30;18.15;;;16.33;;
17790;SDS011;9019;48.132;-1.210;2023-05-14T11:12:58;18.35;;;16.45;;
17790;SDS011;9019;48.132;-1.210;2023-05-14T11:15:25;17.42;;;15.10;;
17790;SDS011;9019;48.132;-1.210;2023-05-14T11:17:53;17.02;;;15.38;;
17790;SDS011;9019;48.132;-1.210;2023-05-14T11:20:20;18.45;;;16.52;;
17790;SDS011;9019;48.132;-1.210;2023-05-14T11:22:49;15.93;;;14.23;;
17790;SDS011;9019;48.132;-1.210;2023-05-14T11:25:16;17.27;;;15.38;;
17790;SDS011;9019;48.132;-1.210;2023-05-14T11:27:45;16.15;;;14.65;;
17790;SDS011;9019;48.132;-1.210;2023-05-14T11:30:13;17.67;;;15.95;;
17790;SDS011;9019;48.132;-1.210;2023-05-14T11:32:41;16.65;;;14.85;;
17790;SDS011;9019;48.132;-1.210;2023-05-14T11:35:09;17.77;;;15.10;;
17790;SDS011;9019;48.132;-1.210;2023-05-14T11:37:36;18.05;;;16.15;;
17790;SDS011;9019;48.132;-1.210;2023-05-14T11:40:07;16.60;;;14.52;;
17790;SDS011;9019;48.132;-1.210;2023-05-14T11:42:35;16.30;;;14.75;;
17790;SDS011;9019;48.132;-1.210;2023-05-14T11:45:03;19.38;;;15.23;;
17790;SDS011;9019;48.132;-1.210;2023-05-14T11:47:30;14.93;;;13.43;;
17790;SDS011;9019;48.132;-1.210;2023-05-14T11:49:57;16.80;;;14.98;;
17790;SDS011;9019;48.132;-1.210;2023-05-14T11:52:26;17.88;;;15.27;;
17790;SDS011;9019;48.132;-1.210;2023-05-14T11:54:53;15.93;;;14.32;;
17790;SDS011;9019;48.132;-1.210;2023-05-14T11:57:22;15.45;;;13.82;;
17790;SDS011;9019;48.132;-1.210;2023-05-14T11:59:54;18.27;;;15.13;;
17790;SDS011;9019;48.132;-1.210;2023-05-14T12:02:22;17.13;;;15.32;;
17790;SDS011;9019;48.132;-1.210;2023-05-14T12:04:53;16.40;;;14.73;;
17790;SDS011;9019;48.132;-1.210;2023-05-14T12:07:22;13.90;;;12.60;;
17790;SDS011;9019;48.132;-1.210;2023-05-14T12:09:49;16.33;;;14.73;;
17790;SDS011;9019;48.132;-1.210;2023-05-14T12:12:17;15.07;;;13.43;;
17790;SDS011;9019;48.132;-1.210;2023-05-14T12:14:46;15.88;;;14.18;;
17790;SDS011;9019;48.132;-1.210;2023-05-14T12:17:14;14.82;;;13.32;;
17790;SDS011;9019;48.132;-1.210;2023-05-14T12:19:41;15.38;;;13.48;;
17790;SDS011;9019;48.132;-1.210;2023-05-14T12:22:09;16.38;;;14.35;;
17790;SDS011;9019;48.132;-1.210;2023-05-14T12:24:36;16.15;;;13.38;;
17790;SDS011;9019;48.132;-1.210;2023-05-14T12:27:04;14.63;;;12.95;;
17790;SDS011;9019;48.132;-1.210;2023-05-14T12:29:34;14.02;;;12.55;;
17790;SDS011;9019;48.132;-1.210;2023-05-14T12:32:06;12.20;;;10.93;;
17790;SDS011;9019;48.132;-1.210;2023-05-14T12:34:34;14.45;;;12.98;;
17790;SDS011;9019;48.132;-1.210;2023-05-14T12:37:01;14.10;;;12.70;;
17790;SDS011;9019;48.132;-1.210;2023-05-14T12:39:29;13.60;;;12.23;;
17790;SDS011;9019;48.132;-1.210;2023-05-14T12:41:56;15.38;;;13.75;;
17790;SDS011;9019;48.132;-1.210;2023-05-14T12:44:23;12.18;;;10.85;;
17790;SDS011;9019;48.132;-1.210;2023-05-14T12:46:51;12.50;;;11.30;;
17790;SDS011;9019;48.132;-1.210;2023-05-14T12:49:19;13.77;;;11.63;;
17790;SDS011;9019;48.132;-1.210;2023-05-14T12:51:46;15.25;;;12.70;;
17790;SDS011;9019;48.132;-1.210;2023-05-14T12:54:14;14.00;;;12.35;;
17790;SDS011;9019;48.132;-1.210;2023-05-14T12:56:41;14.80;;;12.45;;
17790;SDS011;9019;48.132;-1.210;2023-05-14T12:59:08;13.20;;;11.73;;
17790;SDS011;9019;48.132;-1.210;2023-05-14T13:01:35;13.70;;;12.18;;
17790;SDS011;9019;48.132;-1.210;2023-05-14T13:04:03;12.90;;;11.57;;
17790;SDS011;9019;48.132;-1.210;2023-05-14T13:06:31;14.05;;;12.55;;
17790;SDS011;9019;48.132;-1.210;2023-05-14T13:08:59;14.65;;;12.45;;
17790;SDS011;9019;48.132;-1.210;2023-05-14T13:11:26;14.60;;;13.00;;
17790;SDS011;9019;48.132;-1.210;2023-05-14T13:13:55;16.35;;;13.20;;
17790;SDS011;9019;48.132;-1.210;2023-05-14T13:16:23;16.90;;;15.13;;
17790;SDS011;9019;48.132;-1.210;2023-05-14T13:18:50;16.98;;;14.88;;
17790;SDS011;9019;48.132;-1.210;2023-05-14T13:21:17;15.55;;;13.65;;
17790;SDS011;9019;48.132;-1.210;2023-05-14T13:23:46;14.80;;;12.40;;
17790;SDS011;9019;48.132;-1.210;2023-05-14T13:26:14;13.40;;;11.40;;
17790;SDS011;9019;48.132;-1.210;2023-05-14T13:28:41;13.90;;;12.50;;
17790;SDS011;9019;48.132;-1.210;2023-05-14T13:31:09;17.55;;;14.15;;
17790;SDS011;9019;48.132;-1.210;2023-05-14T13:33:37;15.65;;;13.90;;
17790;SDS011;9019;48.132;-1.210;2023-05-14T13:36:05;12.55;;;11.35;;
17790;SDS011;9019;48.132;-1.210;2023-05-14T13:38:32;12.82;;;11.50;;
17790;SDS011;9019;48.132;-1.210;2023-05-14T13:41:01;12.13;;;10.82;;
17790;SDS011;9019;48.132;-1.210;2023-05-14T13:43:29;12.63;;;11.38;;
17790;SDS011;9019;48.132;-1.210;2023-05-14T13:45:56;12.50;;;11.30;;
17790;SDS011;9019;48.132;-1.210;2023-05-14T13:48:24;12.68;;;11.43;;
17790;SDS011;9019;48.132;-1.210;2023-05-14T13:50:51;13.10;;;11.70;;
17790;SDS011;9019;48.132;-1.210;2023-05-14T13:53:19;17.15;;;12.25;;
17790;SDS011;9019;48.132;-1.210;2023-05-14T13:55:47;13.35;;;12.02;;
17790;SDS011;9019;48.132;-1.210;2023-05-14T13:58:16;12.77;;;11.32;;
17790;SDS011;9019;48.132;-1.210;2023-05-14T14:00:43;11.65;;;10.43;;
17790;SDS011;9019;48.132;-1.210;2023-05-14T14:03:10;10.93;;;9.82;;
17790;SDS011;9019;48.132;-1.210;2023-05-14T14:05:38;9.45;;;8.48;;
17790;SDS011;9019;48.132;-1.210;2023-05-14T14:08:05;10.80;;;9.43;;
17790;SDS011;9019;48.132;-1.210;2023-05-14T14:10:32;13.18;;;10.20;;
17790;SDS011;9019;48.132;-1.210;2023-05-14T14:13:00;8.57;;;7.78;;
17790;SDS011;9019;48.132;-1.210;2023-05-14T14:15:29;11.38;;;8.88;;
17790;SDS011;9019;48.132;-1.210;2023-05-14T14:17:59;9.35;;;8.32;;
17790;SDS011;9019;48.132;-1.210;2023-05-14T14:20:26;8.98;;;8.10;;
17790;SDS011;9019;48.132;-1.210;2023-05-14T14:22:55;10.20;;;9.15;;
17790;SDS011;9019;48.132;-1.210;2023-05-14T14:25:22;9.95;;;9.00;;